sensor_id;sensor_type;location;lat;lon;timestamp;pressure;altitude;pressure_sealevel;temperature;humidity
24788;BME280;12883;52.662;5.196;2023-03-25T00:01:17;99910.53;;;10.89;100.00
24788;BME280;12883;52.662;5.196;2023-03-25T00:03:43;99932.47;;;10.96;100.00
24788;BME280;12883;52.662;5.196;2023-03-25T00:06:14;99948.03;;;10.92;100.00
24788;BME280;12883;52.662;5.196;2023-03-25T00:08:40;99925.19;;;10.91;100.00
24788;BME280;12883;52.662;5.196;2023-03-25T00:11:06;99940.28;;;10.91;100.00
24788;BME280;12883;52.662;5.196;2023-03-25T00:13:33;99894.03;;;10.69;100.00
24788;BME280;12883;52.662;5.196;2023-03-25T00:15:59;99931.91;;;10.94;100.00
24788;BME280;12883;52.662;5.196;2023-03-25T00:18:27;99942.94;;;10.91;100.00
24788;BME280;12883;52.662;5.196;2023-03-25T00:20:59;99922.09;;;10.94;100.00
24788;BME280;12883;52.662;5.196;2023-03-25T00:23:25;99942.81;;;10.86;100.00
24788;BME280;12883;52.662;5.196;2023-03-25T00:25:51;99933.22;;;10.85;100.00
24788;BME280;12883;52.662;5.196;2023-03-25T00:28:17;99941.13;;;10.91;100.00
24788;BME280;12883;52.662;5.196;2023-03-25T00:30:44;99942.81;;;10.86;100.00
24788;BME280;12883;52.662;5.196;2023-03-25T00:33:09;99934.41;;;10.89;100.00
24788;BME280;12883;52.662;5.196;2023-03-25T00:35:36;99947.53;;;10.84;100.00
24788;BME280;12883;52.662;5.196;2023-03-25T00:38:04;99923.56;;;10.72;100.00
24788;BME280;12883;52.662;5.196;2023-03-25T00:40:31;99947.31;;;10.85;100.00
24788;BME280;12883;52.662;5.196;2023-03-25T00:43:00;99938.31;;;10.86;100.00
24788;BME280;12883;52.662;5.196;2023-03-25T00:45:27;99927.34;;;10.83;100.00
24788;BME280;12883;52.662;5.196;2023-03-25T00:47:53;99906.19;;;10.76;100.00
24788;BME280;12883;52.662;5.196;2023-03-25T00:50:18;99909.16;;;10.68;100.00
24788;BME280;12883;52.662;5.196;2023-03-25T00:52:45;99905.88;;;10.84;100.00
24788;BME280;12883;52.662;5.196;2023-03-25T00:55:10;99931.91;;;10.76;100.00
24788;BME280;12883;52.662;5.196;2023-03-25T00:57:36;99929.56;;;10.86;100.00
24788;BME280;12883;52.662;5.196;2023-03-25T01:00:07;99934.63;;;10.87;100.00
24788;BME280;12883;52.662;5.196;2023-03-25T01:02:34;99893.38;;;10.55;100.00
24788;BME280;12883;52.662;5.196;2023-03-25T01:05:00;99934.94;;;10.79;100.00
24788;BME280;12883;52.662;5.196;2023-03-25T01:07:26;99932.63;;;10.83;100.00
24788;BME280;12883;52.662;5.196;2023-03-25T01:09:54;99937.94;;;10.83;100.00
24788;BME280;12883;52.662;5.196;2023-03-25T01:12:20;99938.09;;;10.70;100.00
24788;BME280;12883;52.662;5.196;2023-03-25T01:14:45;99943.94;;;10.78;100.00
24788;BME280;12883;52.662;5.196;2023-03-25T01:17:11;99940.91;;;10.75;100.00
24788;BME280;12883;52.662;5.196;2023-03-25T01:19:36;99939.44;;;10.79;100.00
24788;BME280;12883;52.662;5.196;2023-03-25T01:22:01;99932.06;;;10.81;100.00
24788;BME280;12883;52.662;5.196;2023-03-25T01:24:27;99924.53;;;10.78;100.00
24788;BME280;12883;52.662;5.196;2023-03-25T01:26:52;99935.59;;;10.75;100.00
24788;BME280;12883;52.662;5.196;2023-03-25T01:29:19;99925.06;;;10.68;100.00
24788;BME280;12883;52.662;5.196;2023-03-25T01:31:45;99932.84;;;10.81;100.00
24788;BME280;12883;52.662;5.196;2023-03-25T01:34:12;99918.06;;;10.74;100.00
24788;BME280;12883;52.662;5.196;2023-03-25T01:36:37;99936.78;;;10.79;100.00
24788;BME280;12883;52.662;5.196;2023-03-25T01:39:12;99916.94;;;10.81;100.00
24788;BME280;12883;52.662;5.196;2023-03-25T01:41:41;99924.97;;;10.75;100.00
24788;BME280;12883;52.662;5.196;2023-03-25T01:44:08;99923.72;;;10.77;100.00
24788;BME280;12883;52.662;5.196;2023-03-25T01:46:37;99912.66;;;10.80;100.00
24788;BME280;12883;52.662;5.196;2023-03-25T01:49:05;99913.03;;;10.84;100.00
24788;BME280;12883;52.662;5.196;2023-03-25T01:51:34;99920.69;;;10.92;100.00
24788;BME280;12883;52.662;5.196;2023-03-25T01:54:00;99913.75;;;10.91;100.00
24788;BME280;12883;52.662;5.196;2023-03-25T01:56:30;99905.56;;;10.92;100.00
24788;BME280;12883;52.662;5.196;2023-03-25T01:59:00;99918.63;;;10.94;100.00
24788;BME280;12883;52.662;5.196;2023-03-25T02:01:27;99888.19;;;10.78;100.00
24788;BME280;12883;52.662;5.196;2023-03-25T02:03:53;99913.06;;;10.95;100.00
24788;BME280;12883;52.662;5.196;2023-03-25T02:06:32;99903.88;;;10.98;100.00
24788;BME280;12883;52.662;5.196;2023-03-25T02:09:02;99917.03;;;10.93;100.00
24788;BME280;12883;52.662;5.196;2023-03-25T02:11:30;99904.31;;;10.95;100.00
24788;BME280;12883;52.662;5.196;2023-03-25T02:13:59;99909.13;;;10.86;100.00
24788;BME280;12883;52.662;5.196;2023-03-25T02:16:51;99906.97;;;10.95;100.00
24788;BME280;12883;52.662;5.196;2023-03-25T02:19:58;99895.78;;;10.93;100.00
24788;BME280;12883;52.662;5.196;2023-03-25T02:22:48;99899.09;;;10.88;100.00
24788;BME280;12883;52.662;5.196;2023-03-25T02:28:29;99907.03;;;10.88;100.00
24788;BME280;12883;52.662;5.196;2023-03-25T02:39:46;99912.28;;;10.95;100.00
24788;BME280;12883;52.662;5.196;2023-03-25T02:45:11;99893.56;;;10.90;100.00
24788;BME280;12883;52.662;5.196;2023-03-25T02:48:02;99910.53;;;10.89;100.00
24788;BME280;12883;52.662;5.196;2023-03-25T02:50:34;99905.66;;;10.86;100.00
24788;BME280;12883;52.662;5.196;2023-03-25T02:53:04;99897.63;;;10.92;100.00
24788;BME280;12883;52.662;5.196;2023-03-25T02:55:33;99846.63;;;10.72;100.00
24788;BME280;12883;52.662;5.196;2023-03-25T02:58:03;99903.50;;;10.94;100.00
24788;BME280;12883;52.662;5.196;2023-03-25T03:00:30;99901.09;;;10.93;100.00
24788;BME280;12883;52.662;5.196;2023-03-25T03:02:59;99891.13;;;10.88;100.00
24788;BME280;12883;52.662;5.196;2023-03-25T03:05:28;99892.53;;;10.91;100.00
24788;BME280;12883;52.662;5.196;2023-03-25T03:08:06;99893.78;;;10.88;100.00
24788;BME280;12883;52.662;5.196;2023-03-25T03:13:39;99880.44;;;10.95;100.00
24788;BME280;12883;52.662;5.196;2023-03-25T03:21:26;99883.63;;;10.85;100.00
24788;BME280;12883;52.662;5.196;2023-03-25T03:24:06;99879.13;;;10.86;100.00
24788;BME280;12883;52.662;5.196;2023-03-25T03:29:18;99875.44;;;10.87;100.00
24788;BME280;12883;52.662;5.196;2023-03-25T03:34:32;99870.25;;;10.92;100.00
24788;BME280;12883;52.662;5.196;2023-03-25T03:37:01;99882.50;;;10.93;100.00
24788;BME280;12883;52.662;5.196;2023-03-25T03:39:31;99884.81;;;10.89;100.00
24788;BME280;12883;52.662;5.196;2023-03-25T03:44:40;99870.13;;;10.87;100.00
24788;BME280;12883;52.662;5.196;2023-03-25T03:47:12;99882.38;;;10.88;100.00
24788;BME280;12883;52.662;5.196;2023-03-25T03:49:46;99884.19;;;10.87;100.00
24788;BME280;12883;52.662;5.196;2023-03-25T03:52:20;99854.06;;;10.64;100.00
24788;BME280;12883;52.662;5.196;2023-03-25T03:54:50;99831.41;;;10.50;100.00
24788;BME280;12883;52.662;5.196;2023-03-25T03:57:23;99890.69;;;10.73;100.00
24788;BME280;12883;52.662;5.196;2023-03-25T04:05:05;99886.78;;;10.76;100.00
24788;BME280;12883;52.662;5.196;2023-03-25T04:07:42;99878.41;;;10.79;100.00
24788;BME280;12883;52.662;5.196;2023-03-25T04:10:20;99887.84;;;10.75;100.00
24788;BME280;12883;52.662;5.196;2023-03-25T04:12:50;99887.84;;;10.75;100.00
24788;BME280;12883;52.662;5.196;2023-03-25T04:15:17;99886.06;;;10.69;100.00
24788;BME280;12883;52.662;5.196;2023-03-25T04:17:42;99867.22;;;10.59;100.00
24788;BME280;12883;52.662;5.196;2023-03-25T04:20:13;99870.59;;;10.66;100.00
24788;BME280;12883;52.662;5.196;2023-03-25T04:22:39;99882.09;;;10.60;100.00
24788;BME280;12883;52.662;5.196;2023-03-25T04:25:11;99884.38;;;10.56;100.00
24788;BME280;12883;52.662;5.196;2023-03-25T04:27:36;99879.44;;;10.60;100.00
24788;BME280;12883;52.662;5.196;2023-03-25T04:30:07;99875.59;;;10.56;100.00
24788;BME280;12883;52.662;5.196;2023-03-25T04:32:33;99851.75;;;10.38;100.00
24788;BME280;12883;52.662;5.196;2023-03-25T04:34:59;99885.19;;;10.57;100.00
24788;BME280;12883;52.662;5.196;2023-03-25T04:37:28;99869.25;;;10.57;100.00
24788;BME280;12883;52.662;5.196;2023-03-25T04:39:53;99880.34;;;10.54;100.00
24788;BME280;12883;52.662;5.196;2023-03-25T04:42:24;99859.41;;;10.46;100.00
24788;BME280;12883;52.662;5.196;2023-03-25T04:44:56;99885.28;;;10.50;100.00
24788;BME280;12883;52.662;5.196;2023-03-25T04:47:23;99868.09;;;10.35;100.00
24788;BME280;12883;52.662;5.196;2023-03-25T04:49:49;99869.50;;;10.37;100.00
24788;BME280;12883;52.662;5.196;2023-03-25T04:52:15;99859.84;;;10.25;100.00
24788;BME280;12883;52.662;5.196;2023-03-25T04:54:40;99878.72;;;10.53;100.00
24788;BME280;12883;52.662;5.196;2023-03-25T04:57:06;99877.09;;;10.52;100.00
24788;BME280;12883;52.662;5.196;2023-03-25T04:59:34;99879.28;;;10.55;100.00
24788;BME280;12883;52.662;5.196;2023-03-25T05:02:00;99878.25;;;10.56;100.00
24788;BME280;12883;52.662;5.196;2023-03-25T05:04:27;99861.56;;;10.55;100.00
24788;BME280;12883;52.662;5.196;2023-03-25T05:06:52;99860.94;;;10.53;100.00
24788;BME280;12883;52.662;5.196;2023-03-25T05:09:19;99859.03;;;10.60;100.00
24788;BME280;12883;52.662;5.196;2023-03-25T05:11:49;99825.16;;;10.44;100.00
24788;BME280;12883;52.662;5.196;2023-03-25T05:14:17;99863.16;;;10.56;100.00
24788;BME280;12883;52.662;5.196;2023-03-25T05:16:43;99870.09;;;10.57;100.00
24788;BME280;12883;52.662;5.196;2023-03-25T05:19:09;99864.63;;;10.52;100.00
24788;BME280;12883;52.662;5.196;2023-03-25T05:21:37;99887.72;;;10.52;100.00
24788;BME280;12883;52.662;5.196;2023-03-25T05:24:04;99879.59;;;10.47;100.00
24788;BME280;12883;52.662;5.196;2023-03-25T05:26:32;99893.44;;;10.49;100.00
24788;BME280;12883;52.662;5.196;2023-03-25T05:29:03;99887.34;;;10.48;100.00
24788;BME280;12883;52.662;5.196;2023-03-25T05:31:28;99869.72;;;10.36;100.00
24788;BME280;12883;52.662;5.196;2023-03-25T05:33:54;99884.53;;;10.43;100.00
24788;BME280;12883;52.662;5.196;2023-03-25T05:36:20;99896.38;;;10.41;100.00
24788;BME280;12883;52.662;5.196;2023-03-25T05:38:45;99931.91;;;10.40;100.00
24788;BME280;12883;52.662;5.196;2023-03-25T05:41:13;99900.00;;;10.46;100.00
24788;BME280;12883;52.662;5.196;2023-03-25T05:43:44;99908.09;;;10.51;100.00
24788;BME280;12883;52.662;5.196;2023-03-25T05:46:10;99895.50;;;10.47;100.00
24788;BME280;12883;52.662;5.196;2023-03-25T05:48:36;99902.44;;;10.48;100.00
24788;BME280;12883;52.662;5.196;2023-03-25T05:51:03;99883.88;;;10.48;100.00
24788;BME280;12883;52.662;5.196;2023-03-25T05:53:30;99906.69;;;10.49;100.00
24788;BME280;12883;52.662;5.196;2023-03-25T05:55:58;99893.53;;;10.42;100.00
24788;BME280;12883;52.662;5.196;2023-03-25T05:58:24;99915.28;;;10.51;100.00
24788;BME280;12883;52.662;5.196;2023-03-25T06:00:50;99902.75;;;10.58;100.00
24788;BME280;12883;52.662;5.196;2023-03-25T06:03:17;99913.56;;;10.56;100.00
24788;BME280;12883;52.662;5.196;2023-03-25T06:05:45;99895.66;;;10.70;100.00
24788;BME280;12883;52.662;5.196;2023-03-25T06:08:10;99896.31;;;10.65;100.00
24788;BME280;12883;52.662;5.196;2023-03-25T06:10:36;99913.13;;;10.77;100.00
24788;BME280;12883;52.662;5.196;2023-03-25T06:13:01;99918.63;;;10.76;100.00
24788;BME280;12883;52.662;5.196;2023-03-25T06:15:27;99920.13;;;10.72;100.00
24788;BME280;12883;52.662;5.196;2023-03-25T06:17:54;99901.25;;;10.62;100.00
24788;BME280;12883;52.662;5.196;2023-03-25T06:20:20;99899.28;;;10.75;100.00
24788;BME280;12883;52.662;5.196;2023-03-25T06:22:45;99905.53;;;10.63;100.00
24788;BME280;12883;52.662;5.196;2023-03-25T06:25:16;99927.00;;;10.61;100.00
24788;BME280;12883;52.662;5.196;2023-03-25T06:27:42;99917.84;;;10.57;100.00
24788;BME280;12883;52.662;5.196;2023-03-25T06:30:10;99918.66;;;10.58;100.00
24788;BME280;12883;52.662;5.196;2023-03-25T06:32:37;99920.69;;;10.56;100.00
24788;BME280;12883;52.662;5.196;2023-03-25T06:35:04;99902.94;;;10.38;100.00
24788;BME280;12883;52.662;5.196;2023-03-25T06:37:30;99937.06;;;10.53;100.00
24788;BME280;12883;52.662;5.196;2023-03-25T06:39:55;99929.78;;;10.48;100.00
24788;BME280;12883;52.662;5.196;2023-03-25T06:42:27;99937.34;;;10.45;100.00
24788;BME280;12883;52.662;5.196;2023-03-25T06:44:54;99934.53;;;10.40;100.00
24788;BME280;12883;52.662;5.196;2023-03-25T06:47:20;99949.25;;;10.36;100.00
24788;BME280;12883;52.662;5.196;2023-03-25T06:49:46;99933.50;;;10.41;100.00
24788;BME280;12883;52.662;5.196;2023-03-25T06:52:11;99918.06;;;10.38;100.00
24788;BME280;12883;52.662;5.196;2023-03-25T06:54:37;99909.50;;;10.36;100.00
24788;BME280;12883;52.662;5.196;2023-03-25T06:57:03;99915.63;;;10.36;100.00
24788;BME280;12883;52.662;5.196;2023-03-25T06:59:28;99929.81;;;10.42;100.00
24788;BME280;12883;52.662;5.196;2023-03-25T07:01:54;99923.66;;;10.30;100.00
24788;BME280;12883;52.662;5.196;2023-03-25T07:04:19;99900.00;;;10.46;100.00
24788;BME280;12883;52.662;5.196;2023-03-25T07:06:45;99930.72;;;10.54;100.00
24788;BME280;12883;52.662;5.196;2023-03-25T07:09:10;99902.00;;;10.51;100.00
24788;BME280;12883;52.662;5.196;2023-03-25T07:11:36;99914.16;;;10.58;100.00
24788;BME280;12883;52.662;5.196;2023-03-25T07:14:01;99936.78;;;10.61;100.00
24788;BME280;12883;52.662;5.196;2023-03-25T07:16:27;99917.84;;;10.57;100.00
24788;BME280;12883;52.662;5.196;2023-03-25T07:18:52;99905.75;;;10.61;100.00
24788;BME280;12883;52.662;5.196;2023-03-25T07:21:19;99921.44;;;10.63;100.00
24788;BME280;12883;52.662;5.196;2023-03-25T07:23:45;99901.19;;;10.68;100.00
24788;BME280;12883;52.662;5.196;2023-03-25T07:26:10;99894.31;;;10.43;100.00
24788;BME280;12883;52.662;5.196;2023-03-25T07:28:37;99930.97;;;10.70;100.00
24788;BME280;12883;52.662;5.196;2023-03-25T07:31:07;99908.03;;;10.58;100.00
24788;BME280;12883;52.662;5.196;2023-03-25T07:33:32;99941.34;;;10.72;100.00
24788;BME280;12883;52.662;5.196;2023-03-25T07:35:58;99945.38;;;10.74;100.00
24788;BME280;12883;52.662;5.196;2023-03-25T07:38:23;99941.47;;;10.77;100.00
24788;BME280;12883;52.662;5.196;2023-03-25T07:40:48;99953.88;;;10.83;100.00
24788;BME280;12883;52.662;5.196;2023-03-25T07:43:14;99953.28;;;10.81;100.00
24788;BME280;12883;52.662;5.196;2023-03-25T07:45:39;99933.88;;;10.80;100.00
24788;BME280;12883;52.662;5.196;2023-03-25T07:48:05;99937.94;;;10.83;100.00
24788;BME280;12883;52.662;5.196;2023-03-25T07:50:32;99946.38;;;10.80;100.00
24788;BME280;12883;52.662;5.196;2023-03-25T07:52:57;99955.94;;;10.81;100.00
24788;BME280;12883;52.662;5.196;2023-03-25T07:55:22;99948.34;;;10.84;100.00
24788;BME280;12883;52.662;5.196;2023-03-25T07:57:48;99929.56;;;10.86;100.00
24788;BME280;12883;52.662;5.196;2023-03-25T08:00:13;99947.88;;;10.87;100.00
24788;BME280;12883;52.662;5.196;2023-03-25T08:02:39;99954.19;;;10.93;100.00
24788;BME280;12883;52.662;5.196;2023-03-25T08:05:06;99916.28;;;10.68;100.00
24788;BME280;12883;52.662;5.196;2023-03-25T08:07:32;99949.09;;;10.91;100.00
24788;BME280;12883;52.662;5.196;2023-03-25T08:09:57;99948.78;;;10.99;100.00
24788;BME280;12883;52.662;5.196;2023-03-25T08:12:23;99957.69;;;11.05;100.00
24788;BME280;12883;52.662;5.196;2023-03-25T08:14:48;99949.06;;;11.09;100.00
24788;BME280;12883;52.662;5.196;2023-03-25T08:17:13;99961.06;;;11.12;100.00
24788;BME280;12883;52.662;5.196;2023-03-25T08:19:38;99958.41;;;11.12;100.00
24788;BME280;12883;52.662;5.196;2023-03-25T08:22:04;99961.38;;;11.04;100.00
24788;BME280;12883;52.662;5.196;2023-03-25T08:24:29;99970.69;;;11.13;100.00
24788;BME280;12883;52.662;5.196;2023-03-25T08:26:56;99971.16;;;11.21;100.00
24788;BME280;12883;52.662;5.196;2023-03-25T08:29:25;99940.13;;;11.04;100.00
24788;BME280;12883;52.662;5.196;2023-03-25T08:31:51;99970.00;;;11.17;100.00
24788;BME280;12883;52.662;5.196;2023-03-25T08:34:18;99972.13;;;11.27;100.00
24788;BME280;12883;52.662;5.196;2023-03-25T08:36:44;99978.25;;;11.27;100.00
24788;BME280;12883;52.662;5.196;2023-03-25T08:39:10;99976.41;;;11.28;100.00
24788;BME280;12883;52.662;5.196;2023-03-25T08:41:38;99972.03;;;11.33;100.00
24788;BME280;12883;52.662;5.196;2023-03-25T08:44:07;99949.94;;;11.51;100.00
24788;BME280;12883;52.662;5.196;2023-03-25T08:46:32;99969.72;;;11.55;100.00
24788;BME280;12883;52.662;5.196;2023-03-25T08:48:57;99967.19;;;11.60;100.00
24788;BME280;12883;52.662;5.196;2023-03-25T08:51:23;99970.56;;;11.67;100.00
24788;BME280;12883;52.662;5.196;2023-03-25T08:53:48;99972.88;;;11.63;100.00
24788;BME280;12883;52.662;5.196;2023-03-25T08:56:13;100000.63;;;11.67;100.00
24788;BME280;12883;52.662;5.196;2023-03-25T08:58:39;99997.75;;;11.69;100.00
24788;BME280;12883;52.662;5.196;2023-03-25T09:01:05;99965.25;;;11.67;100.00
24788;BME280;12883;52.662;5.196;2023-03-25T09:03:31;99958.25;;;11.54;100.00
24788;BME280;12883;52.662;5.196;2023-03-25T09:05:56;99990.25;;;11.77;100.00
24788;BME280;12883;52.662;5.196;2023-03-25T09:08:22;99991.06;;;11.78;100.00
24788;BME280;12883;52.662;5.196;2023-03-25T09:10:48;99976.16;;;11.77;100.00
24788;BME280;12883;52.662;5.196;2023-03-25T09:13:13;100005.41;;;11.77;100.00
24788;BME280;12883;52.662;5.196;2023-03-25T09:15:39;99991.97;;;11.72;100.00
24788;BME280;12883;52.662;5.196;2023-03-25T09:18:05;99983.88;;;11.78;100.00
24788;BME280;12883;52.662;5.196;2023-03-25T09:20:30;100015.91;;;11.83;100.00
24788;BME280;12883;52.662;5.196;2023-03-25T09:22:56;99997.88;;;11.85;100.00
24788;BME280;12883;52.662;5.196;2023-03-25T09:25:21;99999.28;;;11.88;100.00
24788;BME280;12883;52.662;5.196;2023-03-25T09:27:47;100000.53;;;11.85;100.00
24788;BME280;12883;52.662;5.196;2023-03-25T09:30:12;100009.34;;;11.86;100.00
24788;BME280;12883;52.662;5.196;2023-03-25T09:32:39;100010.06;;;11.93;100.00
24788;BME280;12883;52.662;5.196;2023-03-25T09:35:05;100016.13;;;11.82;100.00
24788;BME280;12883;52.662;5.196;2023-03-25T09:37:31;100011.44;;;11.84;100.00
24788;BME280;12883;52.662;5.196;2023-03-25T09:39:56;100015.72;;;11.96;100.00
24788;BME280;12883;52.662;5.196;2023-03-25T09:45:09;100022.44;;;11.99;100.00
24788;BME280;12883;52.662;5.196;2023-03-25T09:47:48;100016.09;;;12.00;100.00
24788;BME280;12883;52.662;5.196;2023-03-25T09:50:16;99978.22;;;11.75;100.00
24788;BME280;12883;52.662;5.196;2023-03-25T09:52:51;100018.66;;;12.06;100.00
24788;BME280;12883;52.662;5.196;2023-03-25T09:55:28;100014.25;;;12.12;100.00
24788;BME280;12883;52.662;5.196;2023-03-25T09:58:00;100001.31;;;12.04;100.00
24788;BME280;12883;52.662;5.196;2023-03-25T10:00:26;99981.16;;;11.85;100.00
24788;BME280;12883;52.662;5.196;2023-03-25T10:03:13;100003.06;;;12.21;100.00
24788;BME280;12883;52.662;5.196;2023-03-25T10:16:36;100035.78;;;12.33;100.00
24788;BME280;12883;52.662;5.196;2023-03-25T10:21:52;100040.69;;;12.48;100.00
24788;BME280;12883;52.662;5.196;2023-03-25T10:27:36;100030.50;;;12.45;100.00
24788;BME280;12883;52.662;5.196;2023-03-25T10:33:00;100044.75;;;12.50;100.00
24788;BME280;12883;52.662;5.196;2023-03-25T10:35:30;100052.25;;;12.65;100.00
24788;BME280;12883;52.662;5.196;2023-03-25T10:38:01;100050.75;;;12.57;100.00
24788;BME280;12883;52.662;5.196;2023-03-25T10:40:38;100066.59;;;12.64;100.00
24788;BME280;12883;52.662;5.196;2023-03-25T10:45:37;100001.59;;;12.48;100.00
24788;BME280;12883;52.662;5.196;2023-03-25T10:48:10;100051.19;;;12.54;100.00
24788;BME280;12883;52.662;5.196;2023-03-25T10:50:39;100068.69;;;12.62;100.00
24788;BME280;12883;52.662;5.196;2023-03-25T10:53:07;100035.84;;;12.68;100.00
24788;BME280;12883;52.662;5.196;2023-03-25T10:55:35;100081.66;;;12.70;100.00
24788;BME280;12883;52.662;5.196;2023-03-25T10:58:01;100024.50;;;12.49;100.00
24788;BME280;12883;52.662;5.196;2023-03-25T11:00:28;100059.09;;;12.61;100.00
24788;BME280;12883;52.662;5.196;2023-03-25T11:02:54;100062.19;;;12.58;100.00
24788;BME280;12883;52.662;5.196;2023-03-25T11:05:23;100053.84;;;12.43;100.00
24788;BME280;12883;52.662;5.196;2023-03-25T11:07:52;100062.53;;;12.50;100.00
24788;BME280;12883;52.662;5.196;2023-03-25T11:12:44;100008.63;;;12.54;100.00
24788;BME280;12883;52.662;5.196;2023-03-25T11:15:14;100067.53;;;12.58;100.00
24788;BME280;12883;52.662;5.196;2023-03-25T11:17:41;100054.34;;;12.63;100.00
24788;BME280;12883;52.662;5.196;2023-03-25T11:20:16;100052.13;;;12.37;100.00
24788;BME280;12883;52.662;5.196;2023-03-25T11:22:49;100087.91;;;12.64;100.00
24788;BME280;12883;52.662;5.196;2023-03-25T11:25:23;100083.19;;;12.66;100.00
24788;BME280;12883;52.662;5.196;2023-03-25T11:28:00;100072.75;;;12.76;100.00
24788;BME280;12883;52.662;5.196;2023-03-25T11:30:26;100083.28;;;12.71;100.00
24788;BME280;12883;52.662;5.196;2023-03-25T11:33:02;100051.91;;;12.50;100.00
24788;BME280;12883;52.662;5.196;2023-03-25T11:35:31;100077.25;;;12.75;100.00
24788;BME280;12883;52.662;5.196;2023-03-25T11:38:00;100085.84;;;12.66;100.00
24788;BME280;12883;52.662;5.196;2023-03-25T11:40:28;100095.53;;;12.72;100.00
24788;BME280;12883;52.662;5.196;2023-03-25T11:42:56;100080.53;;;12.66;100.00
24788;BME280;12883;52.662;5.196;2023-03-25T11:45:25;100077.03;;;12.77;100.00
24788;BME280;12883;52.662;5.196;2023-03-25T11:47:52;100098.59;;;12.87;100.00
24788;BME280;12883;52.662;5.196;2023-03-25T11:50:24;100091.28;;;12.94;100.00
24788;BME280;12883;52.662;5.196;2023-03-25T11:52:58;100088.97;;;12.86;100.00
24788;BME280;12883;52.662;5.196;2023-03-25T11:55:27;100082.72;;;12.80;100.00
24788;BME280;12883;52.662;5.196;2023-03-25T11:57:54;100103.78;;;12.82;100.00
24788;BME280;12883;52.662;5.196;2023-03-25T12:00:31;100080.75;;;12.87;100.00
24788;BME280;12883;52.662;5.196;2023-03-25T12:03:41;100097.06;;;12.79;100.00
24788;BME280;12883;52.662;5.196;2023-03-25T12:08:39;100079.81;;;12.82;100.00
24788;BME280;12883;52.662;5.196;2023-03-25T12:11:31;100083.97;;;12.78;100.00
24788;BME280;12883;52.662;5.196;2023-03-25T12:16:47;100099.16;;;12.77;100.00
24788;BME280;12883;52.662;5.196;2023-03-25T12:19:40;100086.06;;;12.87;100.00
24788;BME280;12883;52.662;5.196;2023-03-25T12:25:01;100057.47;;;12.83;100.00
24788;BME280;12883;52.662;5.196;2023-03-25T12:30:36;100074.38;;;12.77;100.00
24788;BME280;12883;52.662;5.196;2023-03-25T12:41:11;100072.75;;;12.87;100.00
24788;BME280;12883;52.662;5.196;2023-03-25T12:43:59;100077.88;;;13.00;100.00
24788;BME280;12883;52.662;5.196;2023-03-25T12:49:35;100050.53;;;13.16;100.00
24788;BME280;12883;52.662;5.196;2023-03-25T12:55:03;100068.56;;;13.26;100.00
24788;BME280;12883;52.662;5.196;2023-03-25T13:00:46;100055.25;;;13.26;100.00
24788;BME280;12883;52.662;5.196;2023-03-25T13:03:37;100055.22;;;13.37;100.00
24788;BME280;12883;52.662;5.196;2023-03-25T13:06:24;100059.53;;;13.38;100.00
24788;BME280;12883;52.662;5.196;2023-03-25T13:08:58;100053.56;;;13.48;100.00
24788;BME280;12883;52.662;5.196;2023-03-25T13:11:39;100062.16;;;13.50;100.00
24788;BME280;12883;52.662;5.196;2023-03-25T13:14:18;100050.81;;;13.43;100.00
24788;BME280;12883;52.662;5.196;2023-03-25T13:16:46;100054.25;;;13.55;100.00
24788;BME280;12883;52.662;5.196;2023-03-25T13:19:19;100039.31;;;13.54;100.00
24788;BME280;12883;52.662;5.196;2023-03-25T13:21:54;100072.69;;;13.56;100.00
24788;BME280;12883;52.662;5.196;2023-03-25T13:24:54;100062.34;;;13.60;100.00
24788;BME280;12883;52.662;5.196;2023-03-25T13:27:23;100084.63;;;13.54;100.00
24788;BME280;12883;52.662;5.196;2023-03-25T13:29:55;100062.44;;;13.37;100.00
24788;BME280;12883;52.662;5.196;2023-03-25T13:32:48;100080.84;;;13.27;100.00
24788;BME280;12883;52.662;5.196;2023-03-25T13:35:22;100104.84;;;13.15;100.00
24788;BME280;12883;52.662;5.196;2023-03-25T13:37:52;100107.41;;;12.99;100.00
24788;BME280;12883;52.662;5.196;2023-03-25T13:40:30;100127.97;;;12.69;100.00
24788;BME280;12883;52.662;5.196;2023-03-25T13:43:01;100102.47;;;12.50;100.00
24788;BME280;12883;52.662;5.196;2023-03-25T13:45:43;100109.50;;;12.33;100.00
24788;BME280;12883;52.662;5.196;2023-03-25T13:48:17;100108.22;;;12.24;100.00
24788;BME280;12883;52.662;5.196;2023-03-25T13:50:45;100124.88;;;12.31;100.00
24788;BME280;12883;52.662;5.196;2023-03-25T13:58:35;100147.47;;;11.92;100.00
24788;BME280;12883;52.662;5.196;2023-03-25T14:01:25;100148.16;;;11.88;100.00
24788;BME280;12883;52.662;5.196;2023-03-25T14:13:05;100145.66;;;11.57;100.00
24788;BME280;12883;52.662;5.196;2023-03-25T14:15:35;100139.75;;;11.55;100.00
24788;BME280;12883;52.662;5.196;2023-03-25T14:18:03;100155.38;;;11.45;100.00
24788;BME280;12883;52.662;5.196;2023-03-25T14:20:34;100141.94;;;11.40;100.00
24788;BME280;12883;52.662;5.196;2023-03-25T14:23:04;100153.47;;;11.34;100.00
24788;BME280;12883;52.662;5.196;2023-03-25T14:25:38;100152.56;;;11.40;100.00
24788;BME280;12883;52.662;5.196;2023-03-25T14:28:06;100133.22;;;11.15;100.00
24788;BME280;12883;52.662;5.196;2023-03-25T14:30:33;100164.59;;;11.42;100.00
24788;BME280;12883;52.662;5.196;2023-03-25T14:32:59;100166.75;;;11.52;100.00
24788;BME280;12883;52.662;5.196;2023-03-25T14:43:22;100173.72;;;11.71;100.00
24788;BME280;12883;52.662;5.196;2023-03-25T14:54:20;100207.44;;;11.70;100.00
24788;BME280;12883;52.662;5.196;2023-03-25T14:59:34;100203.09;;;11.58;100.00
24788;BME280;12883;52.662;5.196;2023-03-25T15:02:13;100191.00;;;11.62;100.00
24788;BME280;12883;52.662;5.196;2023-03-25T15:04:40;100189.19;;;11.56;100.00